Time;durP1;ratioP1;P1;durP2;ratioP2;P2;SDS_P1;SDS_P2;PMS_P1;PMS_P2;Temp;Humidity;BMP_temperature;BMP_pressure;BME280_temperature;BME280_humidity;BME280_pressure;Samples;Min_cycle;Max_cycle;Signal;HPM_P1;HPM_P2
2021/07/24 00:00:39;;;;;;;13.75;11.68;;;;;;;;;;2047071;28;20191;-50
2021/07/24 00:01:39;;;;;;;13.05;11.18;;;;;;;;;;2043649;28;20202;-52
2021/07/24 00:02:39;;;;;;;11.90;10.32;;;;;;;;;;2044812;29;20235;-50
2021/07/24 00:03:40;;;;;;;13.68;10.43;;;;;;;;;;2057241;28;20205;-51
2021/07/24 00:04:40;;;;;;;13.32;10.85;;;;;;;;;;2047193;28;20195;-53
2021/07/24 00:05:40;;;;;;;14.38;11.20;;;;;;;;;;2052797;28;20206;-51
2021/07/24 00:06:41;;;;;;;13.88;11.35;;;;;;;;;;2049514;28;20615;-52
2021/07/24 00:07:41;;;;;;;11.95;10.75;;;;;;;;;;2052994;28;20211;-54
2021/07/24 00:08:41;;;;;;;12.00;10.57;;;;;;;;;;2057658;28;20204;-53
2021/07/24 00:09:41;;;;;;;14.45;11.30;;;;;;;;;;2050202;28;20195;-52
2021/07/24 00:10:42;;;;;;;12.63;11.13;;;;;;;;;;2056901;28;20193;-53
2021/07/24 00:11:42;;;;;;;11.65;10.27;;;;;;;;;;2053659;28;20210;-54
2021/07/24 00:12:42;;;;;;;13.02;11.32;;;;;;;;;;2042018;28;20192;-54
2021/07/24 00:13:42;;;;;;;13.45;10.30;;;;;;;;;;2057615;28;20182;-52
2021/07/24 00:14:43;;;;;;;11.07;9.95;;;;;;;;;;2057366;28;20261;-55
2021/07/24 00:15:43;;;;;;;14.70;11.18;;;;;;;;;;2059435;28;20595;-50
2021/07/24 00:16:43;;;;;;;14.55;10.85;;;;;;;;;;2057569;28;20178;-51
2021/07/24 00:17:43;;;;;;;12.68;10.15;;;;;;;;;;2050090;28;20694;-52
2021/07/24 00:18:44;;;;;;;12.15;10.90;;;;;;;;;;2056539;28;20189;-50
2021/07/24 00:19:44;;;;;;;13.27;10.27;;;;;;;;;;2049733;28;20696;-50
2021/07/24 00:20:44;;;;;;;13.80;10.95;;;;;;;;;;2049620;28;20242;-53
2021/07/24 00:21:45;;;;;;;14.85;10.90;;;;;;;;;;2047398;28;20172;-53
2021/07/24 00:22:45;;;;;;;13.80;11.02;;;;;;;;;;2057843;28;20175;-54
2021/07/24 00:23:45;;;;;;;13.32;11.02;;;;;;;;;;2049639;28;20229;-53
2021/07/24 00:24:46;;;;;;;13.20;10.57;;;;;;;;;;2057379;28;20177;-49
2021/07/24 00:25:46;;;;;;;12.20;10.57;;;;;;;;;;2049580;28;20257;-53
2021/07/24 00:26:48;;;;;;;12.65;9.82;;;;;;;;;;2051008;28;20176;-52
2021/07/24 00:27:48;;;;;;;10.50;9.40;;;;;;;;;;2056896;28;20170;-49
2021/07/24 00:28:49;;;;;;;13.40;10.57;;;;;;;;;;2050173;28;20163;-53
2021/07/24 00:29:54;;;;;;;12.98;10.25;;;;;;;;;;2048815;28;20249;-51
2021/07/24 00:30:54;;;;;;;11.90;9.82;;;;;;;;;;2064034;28;20200;-51
2021/07/24 00:32:05;;;;;;;11.85;10.40;;;;;;;;;;2052297;28;20182;-52
2021/07/24 00:33:07;;;;;;;12.02;10.60;;;;;;;;;;2057687;28;20259;-51
2021/07/24 00:34:07;;;;;;;12.45;11.05;;;;;;;;;;2059927;28;20705;-52
2021/07/24 00:35:08;;;;;;;12.50;10.93;;;;;;;;;;2053289;28;20170;-51
2021/07/24 00:36:08;;;;;;;11.23;9.95;;;;;;;;;;2054536;28;20187;-54
2021/07/24 00:37:08;;;;;;;11.93;10.65;;;;;;;;;;2046091;28;20209;-52
2021/07/24 00:38:08;;;;;;;12.23;10.45;;;;;;;;;;2048802;29;20214;-53
2021/07/24 00:39:09;;;;;;;14.00;11.85;;;;;;;;;;2051682;28;20239;-52
2021/07/24 00:40:13;;;;;;;12.57;10.27;;;;;;;;;;2055420;28;20194;-54
2021/07/24 00:41:16;;;;;;;13.75;10.65;;;;;;;;;;2060733;28;20179;-52
2021/07/24 00:42:18;;;;;;;11.93;10.45;;;;;;;;;;2057907;28;20167;-50
2021/07/24 00:43:19;;;;;;;15.02;11.85;;;;;;;;;;2056312;28;20182;-55
2021/07/24 00:44:24;;;;;;;11.85;9.98;;;;;;;;;;2045024;28;20210;-52
2021/07/24 00:45:25;;;;;;;14.35;11.02;;;;;;;;;;2057085;28;20565;-50
2021/07/24 00:46:28;;;;;;;14.60;11.38;;;;;;;;;;2054075;28;20202;-50
2021/07/24 00:47:34;;;;;;;14.02;10.52;;;;;;;;;;2049294;28;20171;-53
2021/07/24 00:48:45;;;;;;;12.55;10.48;;;;;;;;;;2053270;28;20170;-57
2021/07/24 00:50:12;;;;;;;14.77;10.85;;;;;;;;;;2055659;28;20609;-50
2021/07/24 00:51:13;;;;;;;14.13;10.85;;;;;;;;;;2058046;28;20193;-53
2021/07/24 00:52:14;;;;;;;15.52;10.88;;;;;;;;;;2053037;28;20225;-53
2021/07/24 00:53:21;;;;;;;13.10;10.85;;;;;;;;;;2049580;28;20238;-53
2021/07/24 00:54:21;;;;;;;13.02;10.80;;;;;;;;;;2053589;28;20228;-57
2021/07/24 00:55:22;;;;;;;14.20;11.65;;;;;;;;;;2047802;28;20171;-56
2021/07/24 00:56:24;;;;;;;12.73;11.43;;;;;;;;;;2046513;28;20265;-53
2021/07/24 00:57:24;;;;;;;12.93;10.63;;;;;;;;;;2057065;28;20198;-54
2021/07/24 00:58:25;;;;;;;13.35;11.35;;;;;;;;;;2054533;28;20241;-52
2021/07/24 00:59:25;;;;;;;14.52;12.20;;;;;;;;;;2056707;28;20190;-53
2021/07/24 01:00:26;;;;;;;12.95;11.55;;;;;;;;;;2056874;28;20713;-52
2021/07/24 01:01:27;;;;;;;14.20;10.43;;;;;;;;;;2046936;29;20183;-57
2021/07/24 01:02:27;;;;;;;13.23;10.65;;;;;;;;;;2043231;29;20171;-54
2021/07/24 01:03:27;;;;;;;15.82;11.52;;;;;;;;;;2050074;28;20562;-56
2021/07/24 01:04:28;;;;;;;14.07;11.50;;;;;;;;;;2055082;28;20185;-53
2021/07/24 01:05:28;;;;;;;12.50;10.43;;;;;;;;;;2050880;28;20202;-55
2021/07/24 01:06:30;;;;;;;13.32;11.05;;;;;;;;;;2043999;28;20266;-54
2021/07/24 01:07:33;;;;;;;14.48;10.40;;;;;;;;;;2054009;28;20864;-54
2021/07/24 01:08:35;;;;;;;11.15;9.85;;;;;;;;;;2050546;28;20183;-57
2021/07/24 01:09:38;;;;;;;11.75;10.55;;;;;;;;;;2048158;28;20553;-55
2021/07/24 01:10:39;;;;;;;12.68;11.35;;;;;;;;;;2053098;28;20179;-54
2021/07/24 01:11:39;;;;;;;13.32;10.85;;;;;;;;;;2062541;28;20187;-53
2021/07/24 01:12:39;;;;;;;14.68;11.48;;;;;;;;;;2046515;28;20196;-52
2021/07/24 01:13:41;;;;;;;12.93;10.43;;;;;;;;;;2056320;28;20201;-56
2021/07/24 01:14:41;;;;;;;12.80;10.60;;;;;;;;;;2057285;28;20198;-53
2021/07/24 01:15:46;;;;;;;13.38;11.13;;;;;;;;;;2056281;28;20600;-52
2021/07/24 01:16:48;;;;;;;12.82;11.23;;;;;;;;;;2036092;28;20551;-50
2021/07/24 01:17:56;;;;;;;14.20;11.35;;;;;;;;;;2043929;28;20251;-55
2021/07/24 01:18:56;;;;;;;14.05;11.40;;;;;;;;;;2042154;29;20179;-55
2021/07/24 01:20:10;;;;;;;15.02;11.57;;;;;;;;;;2053543;28;20727;-51
2021/07/24 01:21:13;;;;;;;14.63;11.57;;;;;;;;;;2044308;28;20186;-56
2021/07/24 01:22:21;;;;;;;15.95;12.05;;;;;;;;;;2048634;28;20175;-53
2021/07/24 01:23:23;;;;;;;13.00;10.90;;;;;;;;;;2050388;28;20187;-57
2021/07/24 01:24:24;;;;;;;14.23;11.60;;;;;;;;;;2059658;28;20356;-58
2021/07/24 01:25:27;;;;;;;15.43;11.18;;;;;;;;;;2056100;28;20560;-56
2021/07/24 01:26:29;;;;;;;15.02;11.15;;;;;;;;;;2049651;28;20182;-57
2021/07/24 01:27:39;;;;;;;12.85;10.57;;;;;;;;;;2042864;28;20218;-54
2021/07/24 01:28:41;;;;;;;15.27;10.35;;;;;;;;;;2049209;28;20206;-55
2021/07/24 01:29:42;;;;;;;16.23;11.35;;;;;;;;;;2055606;28;20209;-56
2021/07/24 01:30:47;;;;;;;13.25;10.75;;;;;;;;;;2050519;28;20187;-53
2021/07/24 01:31:49;;;;;;;14.38;11.38;;;;;;;;;;2062081;28;20235;-49
2021/07/24 01:32:52;;;;;;;13.63;10.50;;;;;;;;;;2056203;28;20580;-53
2021/07/24 01:33:53;;;;;;;13.90;11.05;;;;;;;;;;2040149;29;20654;-51
2021/07/24 01:34:53;;;;;;;15.95;11.50;;;;;;;;;;2056110;28;20687;-51
2021/07/24 01:35:56;;;;;;;13.80;11.77;;;;;;;;;;2046572;28;20205;-51
2021/07/24 01:36:57;;;;;;;12.65;11.18;;;;;;;;;;2049113;28;20320;-51
2021/07/24 01:37:57;;;;;;;12.80;10.23;;;;;;;;;;2047303;28;20212;-52
2021/07/24 01:38:58;;;;;;;15.32;11.70;;;;;;;;;;2050940;28;20530;-54
2021/07/24 01:39:58;;;;;;;14.60;11.93;;;;;;;;;;2053009;28;20222;-53
2021/07/24 01:41:00;;;;;;;17.15;12.15;;;;;;;;;;2054944;28;20174;-53
2021/07/24 01:42:00;;;;;;;15.57;11.90;;;;;;;;;;2049948;28;20612;-52
2021/07/24 01:43:03;;;;;;;13.50;11.90;;;;;;;;;;2062484;28;20165;-55
2021/07/24 01:44:04;;;;;;;13.52;11.35;;;;;;;;;;2046958;28;20906;-53
2021/07/24 01:45:05;;;;;;;12.07;10.15;;;;;;;;;;2045941;29;20186;-53
2021/07/24 01:46:05;;;;;;;15.32;11.27;;;;;;;;;;2051416;28;20281;-59
2021/07/24 01:47:18;;;;;;;13.27;10.88;;;;;;;;;;2061651;28;20174;-50
2021/07/24 01:48:33;;;;;;;14.77;12.07;;;;;;;;;;2050719;28;20218;-52
2021/07/24 01:53:37;;;;;;;13.27;10.48;;;;;;;;;;2049912;28;20538;-54
2021/07/24 01:54:42;;;;;;;14.07;11.13;;;;;;;;;;2056732;28;20209;-50
2021/07/24 01:55:50;;;;;;;17.25;12.50;;;;;;;;;;2051536;28;20183;-53
2021/07/24 01:56:51;;;;;;;14.85;11.98;;;;;;;;;;2049578;28;20163;-58
2021/07/24 01:57:53;;;;;;;13.55;11.82;;;;;;;;;;2051023;28;20267;-52
2021/07/24 01:58:55;;;;;;;14.45;12.52;;;;;;;;;;2050652;28;20171;-50
2021/07/24 02:00:00;;;;;;;13.95;11.73;;;;;;;;;;2042755;28;20223;-50
2021/07/24 02:01:01;;;;;;;14.55;11.95;;;;;;;;;;2053779;28;20664;-51
2021/07/24 02:02:05;;;;;;;14.77;11.60;;;;;;;;;;2054805;28;20177;-55
2021/07/24 02:03:07;;;;;;;13.50;11.02;;;;;;;;;;2053492;28;20175;-55
2021/07/24 02:04:33;;;;;;;14.57;11.82;;;;;;;;;;2050111;28;20233;-54
2021/07/24 02:05:46;;;;;;;16.98;11.80;;;;;;;;;;2045996;28;20183;-58
2021/07/24 02:06:48;;;;;;;15.32;11.10;;;;;;;;;;2047287;28;20190;-53
2021/07/24 02:08:05;;;;;;;13.88;12.05;;;;;;;;;;2050852;28;20166;-52
2021/07/24 02:09:06;;;;;;;14.32;11.90;;;;;;;;;;2051626;28;20179;-52
2021/07/24 02:10:07;;;;;;;16.35;12.18;;;;;;;;;;2056599;28;20256;-57
2021/07/24 02:11:24;;;;;;;13.30;11.23;;;;;;;;;;2057791;28;20772;-54
2021/07/24 02:12:25;;;;;;;15.82;11.80;;;;;;;;;;2057929;28;20185;-55
2021/07/24 02:13:26;;;;;;;16.42;12.02;;;;;;;;;;2056942;28;20178;-54
2021/07/24 02:14:28;;;;;;;15.73;11.98;;;;;;;;;;2048749;29;20604;-55
2021/07/24 02:15:38;;;;;;;12.82;11.52;;;;;;;;;;2048868;29;20175;-52
2021/07/24 02:16:40;;;;;;;15.82;12.65;;;;;;;;;;2048065;28;20546;-52
2021/07/24 02:17:42;;;;;;;16.75;11.60;;;;;;;;;;2056594;28;20178;-52
2021/07/24 02:18:42;;;;;;;16.10;13.02;;;;;;;;;;2049326;28;20171;-52
2021/07/24 02:19:58;;;;;;;14.20;11.20;;;;;;;;;;2049553;28;20186;-56
2021/07/24 02:21:00;;;;;;;15.77;11.77;;;;;;;;;;2049594;28;20194;-55
2021/07/24 02:22:00;;;;;;;14.05;11.90;;;;;;;;;;2055977;28;20170;-54
2021/07/24 02:23:01;;;;;;;14.52;11.43;;;;;;;;;;2048935;29;20179;-53
2021/07/24 02:24:02;;;;;;;14.35;11.25;;;;;;;;;;2048974;29;20543;-54
2021/07/24 02:25:02;;;;;;;14.90;11.30;;;;;;;;;;2043833;29;20185;-52
2021/07/24 02:26:04;;;;;;;13.48;11.25;;;;;;;;;;2040890;29;20172;-51
2021/07/24 02:27:07;;;;;;;15.38;12.43;;;;;;;;;;2041995;29;20175;-54
2021/07/24 02:28:14;;;;;;;15.02;12.23;;;;;;;;;;2041211;29;20229;-54
2021/07/24 02:29:16;;;;;;;15.85;11.57;;;;;;;;;;2048716;29;20171;-52
2021/07/24 02:30:17;;;;;;;15.15;11.98;;;;;;;;;;2046957;28;20292;-56
2021/07/24 02:31:17;;;;;;;15.40;11.15;;;;;;;;;;2048008;29;20187;-54
2021/07/24 02:32:18;;;;;;;13.35;10.57;;;;;;;;;;2055740;28;20178;-57
2021/07/24 02:33:19;;;;;;;15.50;11.45;;;;;;;;;;2056359;28;20182;-56
2021/07/24 02:34:19;;;;;;;13.20;11.63;;;;;;;;;;2051762;28;20207;-56
2021/07/24 02:35:20;;;;;;;14.45;11.48;;;;;;;;;;2055599;28;20840;-56
2021/07/24 02:36:45;;;;;;;15.70;12.40;;;;;;;;;;2055921;28;20271;-53
2021/07/24 02:37:46;;;;;;;15.38;11.90;;;;;;;;;;2045964;28;20186;-52
2021/07/24 02:38:47;;;;;;;14.63;11.77;;;;;;;;;;2037222;29;20177;-52
2021/07/24 02:39:47;;;;;;;14.82;11.57;;;;;;;;;;2055590;28;20244;-50
2021/07/24 02:40:48;;;;;;;20.10;12.50;;;;;;;;;;2043252;28;20176;-53
2021/07/24 02:41:49;;;;;;;14.98;11.38;;;;;;;;;;2054021;28;20265;-52
2021/07/24 02:42:51;;;;;;;14.82;11.63;;;;;;;;;;2059619;28;20261;-56
2021/07/24 02:43:51;;;;;;;16.75;11.70;;;;;;;;;;2042341;28;20172;-53
2021/07/24 02:44:51;;;;;;;14.10;11.65;;;;;;;;;;2049478;28;20171;-52
2021/07/24 02:45:52;;;;;;;14.70;11.77;;;;;;;;;;2054123;28;20275;-57
2021/07/24 02:46:52;;;;;;;18.15;11.93;;;;;;;;;;2042923;28;20182;-56
2021/07/24 02:47:57;;;;;;;15.57;12.15;;;;;;;;;;2045743;29;20159;-57
2021/07/24 02:48:58;;;;;;;15.05;12.35;;;;;;;;;;2047961;28;20175;-55
2021/07/24 02:50:05;;;;;;;16.63;11.93;;;;;;;;;;2053713;28;20269;-50
2021/07/24 02:51:05;;;;;;;14.40;11.15;;;;;;;;;;2056572;28;20192;-49
2021/07/24 02:52:06;;;;;;;13.98;11.27;;;;;;;;;;2056167;28;20185;-53
2021/07/24 02:53:07;;;;;;;14.40;11.65;;;;;;;;;;2046194;28;20189;-54
2021/07/24 02:54:07;;;;;;;17.58;11.40;;;;;;;;;;2052440;28;20560;-48
2021/07/24 02:55:10;;;;;;;11.70;10.40;;;;;;;;;;2054778;28;20184;-50
2021/07/24 02:56:10;;;;;;;14.40;11.90;;;;;;;;;;2054434;28;20175;-51
2021/07/24 02:57:13;;;;;;;15.65;12.77;;;;;;;;;;2052690;28;20239;-55
2021/07/24 02:58:13;;;;;;;14.05;12.02;;;;;;;;;;2056281;28;20234;-54
2021/07/24 02:59:15;;;;;;;16.83;13.15;;;;;;;;;;2047625;29;20203;-53
2021/07/24 03:00:16;;;;;;;16.58;12.27;;;;;;;;;;2040458;29;20203;-51
2021/07/24 03:01:16;;;;;;;14.27;11.45;;;;;;;;;;2048226;28;20624;-54
2021/07/24 03:02:17;;;;;;;15.88;12.25;;;;;;;;;;2049010;29;20189;-52
2021/07/24 03:03:17;;;;;;;15.00;12.02;;;;;;;;;;2049141;28;20166;-54
2021/07/24 03:04:17;;;;;;;14.98;12.10;;;;;;;;;;2049215;29;20245;-56
2021/07/24 03:05:17;;;;;;;15.68;11.63;;;;;;;;;;2048502;29;20190;-51
2021/07/24 03:06:17;;;;;;;15.02;11.45;;;;;;;;;;2048648;29;20175;-51
2021/07/24 03:07:18;;;;;;;14.40;11.48;;;;;;;;;;2048797;29;20166;-56
2021/07/24 03:08:18;;;;;;;16.45;12.23;;;;;;;;;;2048983;29;20273;-53
2021/07/24 03:09:18;;;;;;;14.18;12.05;;;;;;;;;;2049232;28;20171;-53
2021/07/24 03:10:19;;;;;;;14.23;11.57;;;;;;;;;;2049027;28;20246;-54
2021/07/24 03:11:19;;;;;;;15.43;11.93;;;;;;;;;;2049156;29;20171;-54
2021/07/24 03:12:19;;;;;;;18.67;13.13;;;;;;;;;;2049036;29;20271;-57
2021/07/24 03:13:19;;;;;;;15.18;12.60;;;;;;;;;;2049383;29;20652;-53
2021/07/24 03:14:20;;;;;;;14.38;12.23;;;;;;;;;;2049014;28;20206;-54
2021/07/24 03:15:20;;;;;;;14.00;11.77;;;;;;;;;;2048676;29;20680;-52
2021/07/24 03:16:21;;;;;;;16.17;12.82;;;;;;;;;;2048455;28;20182;-53
2021/07/24 03:17:21;;;;;;;14.95;11.52;;;;;;;;;;2049116;28;20234;-53
2021/07/24 03:18:22;;;;;;;17.65;12.52;;;;;;;;;;2048837;29;20167;-56
2021/07/24 03:19:22;;;;;;;15.40;12.63;;;;;;;;;;2049242;28;20171;-56
2021/07/24 03:20:22;;;;;;;15.43;12.05;;;;;;;;;;2048464;28;20198;-58
2021/07/24 03:21:23;;;;;;;14.15;11.50;;;;;;;;;;2053062;28;20198;-55
2021/07/24 03:22:23;;;;;;;15.77;13.05;;;;;;;;;;2054757;28;20210;-57
2021/07/24 03:23:23;;;;;;;15.82;12.85;;;;;;;;;;2050029;28;20248;-56
2021/07/24 03:24:23;;;;;;;16.45;12.45;;;;;;;;;;2054319;28;20265;-53
2021/07/24 03:25:24;;;;;;;18.40;12.95;;;;;;;;;;2050290;28;20186;-52
2021/07/24 03:26:24;;;;;;;15.02;11.23;;;;;;;;;;2054118;28;20198;-52
2021/07/24 03:27:24;;;;;;;14.95;11.68;;;;;;;;;;2055362;28;20181;-56
2021/07/24 03:28:24;;;;;;;17.00;11.95;;;;;;;;;;2052418;28;20269;-57
2021/07/24 03:29:25;;;;;;;16.13;12.15;;;;;;;;;;2055762;28;20188;-53
2021/07/24 03:30:25;;;;;;;14.90;12.25;;;;;;;;;;2053323;28;20202;-52
2021/07/24 03:31:25;;;;;;;16.55;13.40;;;;;;;;;;2053457;28;20185;-56
2021/07/24 03:32:25;;;;;;;16.35;13.50;;;;;;;;;;2052983;28;20667;-55
2021/07/24 03:33:26;;;;;;;16.25;13.18;;;;;;;;;;2051064;28;20729;-57
2021/07/24 03:34:26;;;;;;;16.42;12.18;;;;;;;;;;2051428;28;20229;-53
2021/07/24 03:35:26;;;;;;;17.77;13.20;;;;;;;;;;2050463;28;20186;-56
2021/07/24 03:36:26;;;;;;;18.38;12.88;;;;;;;;;;2050551;28;20199;-55
2021/07/24 03:37:27;;;;;;;16.00;12.10;;;;;;;;;;2050762;28;20183;-56
2021/07/24 03:38:27;;;;;;;17.05;12.27;;;;;;;;;;2051070;28;20181;-55
2021/07/24 03:39:28;;;;;;;16.58;12.55;;;;;;;;;;2056138;28;20190;-58
2021/07/24 03:40:28;;;;;;;19.77;12.60;;;;;;;;;;2050396;28;20170;-58
2021/07/24 03:41:28;;;;;;;15.57;12.43;;;;;;;;;;2048194;28;20734;-54
2021/07/24 03:42:29;;;;;;;16.42;12.68;;;;;;;;;;2051151;28;20166;-55
2021/07/24 03:43:29;;;;;;;16.10;11.18;;;;;;;;;;2050679;28;20183;-58
2021/07/24 03:44:29;;;;;;;16.35;13.05;;;;;;;;;;2051323;28;20214;-56
2021/07/24 03:45:31;;;;;;;15.40;12.38;;;;;;;;;;2056054;28;20178;-57
2021/07/24 03:46:32;;;;;;;16.30;12.35;;;;;;;;;;2048413;28;20566;-57
2021/07/24 03:47:32;;;;;;;16.15;12.40;;;;;;;;;;2057182;28;20190;-58
2021/07/24 03:48:32;;;;;;;15.02;11.93;;;;;;;;;;2052758;28;20179;-55
2021/07/24 03:49:32;;;;;;;15.55;12.90;;;;;;;;;;2046940;29;20540;-56
2021/07/24 03:50:33;;;;;;;15.35;12.27;;;;;;;;;;2063182;28;20666;-57
2021/07/24 03:51:33;;;;;;;14.70;12.48;;;;;;;;;;2060505;28;20205;-53
2021/07/24 03:52:34;;;;;;;18.08;13.35;;;;;;;;;;2050080;28;20257;-52
2021/07/24 03:53:34;;;;;;;13.88;12.13;;;;;;;;;;2051551;28;20245;-56
2021/07/24 03:54:34;;;;;;;16.15;12.75;;;;;;;;;;2056382;28;20234;-55
2021/07/24 03:55:35;;;;;;;14.63;12.15;;;;;;;;;;2053107;28;20194;-56
2021/07/24 03:56:35;;;;;;;15.00;12.32;;;;;;;;;;2057272;28;20166;-52
2021/07/24 03:57:37;;;;;;;16.75;13.13;;;;;;;;;;2049617;28;20172;-56
2021/07/24 03:58:37;;;;;;;15.15;12.27;;;;;;;;;;2057500;28;20167;-55
2021/07/24 03:59:38;;;;;;;16.35;12.00;;;;;;;;;;2051796;28;20723;-57
2021/07/24 04:00:42;;;;;;;12.57;11.25;;;;;;;;;;2051451;28;20240;-57
2021/07/24 04:01:43;;;;;;;14.55;12.63;;;;;;;;;;2045272;28;20317;-54
2021/07/24 04:02:43;;;;;;;17.27;13.48;;;;;;;;;;2058513;28;20206;-55
2021/07/24 04:03:44;;;;;;;14.82;12.13;;;;;;;;;;2051275;28;20199;-55
2021/07/24 04:04:47;;;;;;;15.55;12.75;;;;;;;;;;2043226;29;20219;-56
2021/07/24 04:05:48;;;;;;;14.75;12.35;;;;;;;;;;2050128;29;20172;-56
2021/07/24 04:06:49;;;;;;;15.43;12.85;;;;;;;;;;2049551;28;20526;-56
2021/07/24 04:07:49;;;;;;;15.50;11.68;;;;;;;;;;2054189;28;20190;-54
2021/07/24 04:08:49;;;;;;;16.73;13.27;;;;;;;;;;2054273;28;20199;-58
2021/07/24 04:11:08;;;;;;;15.75;12.88;;;;;;;;;;2062139;28;20591;-59
2021/07/24 04:12:09;;;;;;;15.75;12.48;;;;;;;;;;2066184;28;20192;-59
2021/07/24 04:13:10;;;;;;;13.82;11.75;;;;;;;;;;2065972;28;20646;-60
2021/07/24 04:14:12;;;;;;;13.68;11.93;;;;;;;;;;2062051;28;20198;-59
2021/07/24 04:15:12;;;;;;;17.20;12.98;;;;;;;;;;2060979;28;20221;-59
2021/07/24 04:16:13;;;;;;;16.27;13.65;;;;;;;;;;2057823;28;20178;-58
2021/07/24 04:17:13;;;;;;;17.00;12.93;;;;;;;;;;2061332;28;20756;-59
2021/07/24 04:18:13;;;;;;;15.50;12.45;;;;;;;;;;2065924;28;20234;-60
2021/07/24 04:19:14;;;;;;;18.52;13.20;;;;;;;;;;2068888;28;20193;-59
2021/07/24 04:20:15;;;;;;;16.38;13.25;;;;;;;;;;2053060;28;20313;-58
2021/07/24 04:21:15;;;;;;;16.02;13.13;;;;;;;;;;2060058;28;20186;-60
2021/07/24 04:22:16;;;;;;;20.02;15.07;;;;;;;;;;2062715;28;20207;-60
2021/07/24 04:23:16;;;;;;;16.52;13.07;;;;;;;;;;2065723;28;20177;-60
2021/07/24 04:24:18;;;;;;;17.70;12.98;;;;;;;;;;2065382;28;20546;-58
2021/07/24 04:25:18;;;;;;;15.65;12.93;;;;;;;;;;2058640;28;20210;-64
2021/07/24 04:26:18;;;;;;;17.83;12.38;;;;;;;;;;2058598;28;20182;-59
2021/07/24 04:27:19;;;;;;;16.33;12.55;;;;;;;;;;2067102;28;20173;-58
2021/07/24 04:28:19;;;;;;;16.83;12.65;;;;;;;;;;2070482;28;20719;-57
2021/07/24 04:29:21;;;;;;;16.33;12.57;;;;;;;;;;2072659;28;20205;-58
2021/07/24 04:30:21;;;;;;;16.33;12.23;;;;;;;;;;2065555;28;20198;-60
2021/07/24 04:31:22;;;;;;;17.10;12.82;;;;;;;;;;2067387;28;20263;-58
2021/07/24 04:32:22;;;;;;;18.88;13.18;;;;;;;;;;2068813;28;20650;-59
2021/07/24 04:33:22;;;;;;;15.82;12.88;;;;;;;;;;2071468;28;20169;-59
2021/07/24 04:34:22;;;;;;;15.82;12.55;;;;;;;;;;2074460;28;20203;-59
2021/07/24 04:35:23;;;;;;;15.98;13.00;;;;;;;;;;2068963;28;20169;-59
2021/07/24 04:36:23;;;;;;;15.27;13.40;;;;;;;;;;2060491;28;20257;-59
2021/07/24 04:37:23;;;;;;;16.30;13.35;;;;;;;;;;2067871;28;20696;-58
2021/07/24 04:38:24;;;;;;;15.98;13.13;;;;;;;;;;2041926;29;20231;-60
2021/07/24 04:39:24;;;;;;;16.95;14.43;;;;;;;;;;2059789;28;20352;-59
2021/07/24 04:40:24;;;;;;;16.10;12.38;;;;;;;;;;2072941;28;20263;-59
2021/07/24 04:41:25;;;;;;;16.58;13.18;;;;;;;;;;2073424;28;20238;-59
2021/07/24 04:42:25;;;;;;;15.35;12.02;;;;;;;;;;2070992;28;20209;-59
2021/07/24 04:43:25;;;;;;;16.05;11.52;;;;;;;;;;2068800;28;20247;-59
2021/07/24 04:44:25;;;;;;;14.20;12.23;;;;;;;;;;2070891;28;20256;-59
2021/07/24 04:45:25;;;;;;;14.07;11.68;;;;;;;;;;2065506;28;20289;-58
2021/07/24 04:46:26;;;;;;;18.90;13.48;;;;;;;;;;2065124;28;20578;-64
2021/07/24 04:47:26;;;;;;;14.98;12.45;;;;;;;;;;2068191;28;20306;-59
2021/07/24 04:48:26;;;;;;;17.55;13.85;;;;;;;;;;2068036;28;20185;-58
2021/07/24 04:49:26;;;;;;;15.43;12.55;;;;;;;;;;2073649;28;20172;-58
2021/07/24 04:50:27;;;;;;;15.30;11.63;;;;;;;;;;2074106;28;20287;-58
2021/07/24 04:51:28;;;;;;;18.20;13.05;;;;;;;;;;2068303;28;20169;-59
2021/07/24 04:52:29;;;;;;;14.73;12.80;;;;;;;;;;2069542;28;20571;-58
2021/07/24 04:53:31;;;;;;;16.42;11.55;;;;;;;;;;2068974;28;20176;-59
2021/07/24 04:54:31;;;;;;;17.05;11.35;;;;;;;;;;2072222;28;20196;-58
2021/07/24 04:55:31;;;;;;;13.55;11.77;;;;;;;;;;2061181;28;20183;-59
2021/07/24 04:56:32;;;;;;;15.25;12.23;;;;;;;;;;2057792;28;20170;-59
2021/07/24 04:57:33;;;;;;;16.00;12.45;;;;;;;;;;2057078;28;20167;-60
2021/07/24 04:58:34;;;;;;;14.65;12.02;;;;;;;;;;2057405;28;20213;-60
2021/07/24 04:59:35;;;;;;;15.68;12.00;;;;;;;;;;2071525;28;20172;-59
2021/07/24 05:00:41;;;;;;;16.67;12.45;;;;;;;;;;2065498;28;20673;-57
2021/07/24 05:01:41;;;;;;;22.15;18.33;;;;;;;;;;2070442;28;20168;-59
2021/07/24 05:02:42;;;;;;;19.48;13.10;;;;;;;;;;2064460;28;20645;-59
2021/07/24 05:03:43;;;;;;;18.55;16.00;;;;;;;;;;2065635;28;20283;-59
2021/07/24 05:04:43;;;;;;;16.55;12.60;;;;;;;;;;2065934;28;20174;-57
2021/07/24 05:05:44;;;;;;;25.50;20.45;;;;;;;;;;2061200;28;20268;-59
2021/07/24 05:06:44;;;;;;;13.73;12.15;;;;;;;;;;2058376;28;20233;-59
2021/07/24 05:07:45;;;;;;;13.63;10.80;;;;;;;;;;2064949;28;20596;-59
2021/07/24 05:08:45;;;;;;;11.93;10.70;;;;;;;;;;2068395;28;20256;-58
2021/07/24 05:09:46;;;;;;;14.85;12.38;;;;;;;;;;2074283;28;20645;-59
2021/07/24 05:10:46;;;;;;;14.63;12.45;;;;;;;;;;2073654;28;20219;-57
2021/07/24 05:11:46;;;;;;;14.32;12.80;;;;;;;;;;2073264;28;20177;-57
2021/07/24 05:12:46;;;;;;;14.23;12.73;;;;;;;;;;2067011;28;20202;-57
2021/07/24 05:13:47;;;;;;;15.80;12.85;;;;;;;;;;2074193;28;20176;-57
2021/07/24 05:14:47;;;;;;;14.20;11.45;;;;;;;;;;2073436;28;20228;-59
2021/07/24 05:15:48;;;;;;;14.38;11.48;;;;;;;;;;2065859;28;20253;-57
2021/07/24 05:16:48;;;;;;;14.73;11.27;;;;;;;;;;2072876;28;20173;-57
2021/07/24 05:17:48;;;;;;;12.88;10.60;;;;;;;;;;2065871;28;20174;-55
2021/07/24 05:18:49;;;;;;;15.05;11.80;;;;;;;;;;2070692;28;20587;-56
2021/07/24 05:19:49;;;;;;;15.70;12.52;;;;;;;;;;2068976;28;20277;-58
2021/07/24 05:20:49;;;;;;;13.00;11.48;;;;;;;;;;2063762;28;20917;-58
2021/07/24 05:21:49;;;;;;;12.20;10.77;;;;;;;;;;2061977;28;20174;-59
2021/07/24 05:22:50;;;;;;;15.48;11.70;;;;;;;;;;2067965;28;20265;-60
2021/07/24 05:23:50;;;;;;;14.18;10.55;;;;;;;;;;2072197;28;20169;-58
2021/07/24 05:24:50;;;;;;;10.90;9.68;;;;;;;;;;2060817;28;20182;-60
2021/07/24 05:25:50;;;;;;;13.38;10.90;;;;;;;;;;2066332;28;20169;-58
2021/07/24 05:26:51;;;;;;;13.77;10.80;;;;;;;;;;2067476;28;20244;-59
2021/07/24 05:27:51;;;;;;;13.07;11.27;;;;;;;;;;2071827;28;20817;-58
2021/07/24 05:28:51;;;;;;;11.75;10.23;;;;;;;;;;2065689;28;20332;-57
2021/07/24 05:29:52;;;;;;;12.68;11.23;;;;;;;;;;2071184;28;20178;-59
2021/07/24 05:30:52;;;;;;;12.02;10.68;;;;;;;;;;2072259;28;20189;-58
2021/07/24 05:31:52;;;;;;;15.63;11.20;;;;;;;;;;2059750;28;20272;-59
2021/07/24 05:32:53;;;;;;;11.80;10.43;;;;;;;;;;2072175;28;20177;-59
2021/07/24 05:33:53;;;;;;;12.35;9.82;;;;;;;;;;2066297;28;20193;-58
2021/07/24 05:34:53;;;;;;;13.38;10.57;;;;;;;;;;2073952;28;20216;-59
2021/07/24 05:35:53;;;;;;;12.52;11.10;;;;;;;;;;2073042;28;20673;-54
2021/07/24 05:36:54;;;;;;;11.50;10.07;;;;;;;;;;2073652;28;20158;-55
2021/07/24 05:37:54;;;;;;;12.80;10.30;;;;;;;;;;2073808;28;20184;-56
2021/07/24 05:38:54;;;;;;;11.27;10.13;;;;;;;;;;2073918;28;20254;-58
2021/07/24 05:39:55;;;;;;;12.25;10.95;;;;;;;;;;2073009;28;20593;-59
2021/07/24 05:40:58;;;;;;;11.98;10.10;;;;;;;;;;2073268;28;20196;-60
2021/07/24 05:41:58;;;;;;;10.18;9.18;;;;;;;;;;2073483;28;20161;-57
2021/07/24 05:42:59;;;;;;;11.27;10.18;;;;;;;;;;2073993;28;20601;-58
2021/07/24 05:44:00;;;;;;;12.20;10.07;;;;;;;;;;2057811;28;20178;-57
2021/07/24 05:45:00;;;;;;;11.32;9.80;;;;;;;;;;2057922;28;20634;-55
2021/07/24 05:46:01;;;;;;;11.63;10.43;;;;;;;;;;2057902;28;20651;-58
2021/07/24 05:47:02;;;;;;;11.35;9.75;;;;;;;;;;2057985;28;20660;-58
2021/07/24 05:48:03;;;;;;;12.48;10.40;;;;;;;;;;2057654;28;20159;-59
2021/07/24 05:49:03;;;;;;;11.45;10.25;;;;;;;;;;2057994;28;20550;-58
2021/07/24 05:50:03;;;;;;;12.10;10.07;;;;;;;;;;2057789;28;20658;-60
2021/07/24 05:51:07;;;;;;;11.10;10.00;;;;;;;;;;2057382;28;20158;-54
2021/07/24 05:52:09;;;;;;;11.18;9.80;;;;;;;;;;2063807;28;20623;-56
2021/07/24 05:53:09;;;;;;;13.18;9.85;;;;;;;;;;2065516;28;20177;-58
2021/07/24 05:54:14;;;;;;;10.50;9.27;;;;;;;;;;2066368;28;20537;-54
2021/07/24 05:55:15;;;;;;;11.30;10.10;;;;;;;;;;2066252;28;20158;-53
2021/07/24 05:56:15;;;;;;;12.50;10.05;;;;;;;;;;2066782;28;20677;-52
2021/07/24 05:57:15;;;;;;;10.77;9.70;;;;;;;;;;2068698;28;20586;-55
2021/07/24 05:58:15;;;;;;;13.90;11.02;;;;;;;;;;2068953;28;20251;-55
2021/07/24 05:59:16;;;;;;;11.27;9.50;;;;;;;;;;2071100;28;20191;-57
2021/07/24 06:00:16;;;;;;;13.23;9.75;;;;;;;;;;2068551;28;20287;-56
2021/07/24 06:01:17;;;;;;;11.20;9.82;;;;;;;;;;2068912;28;20192;-57
2021/07/24 06:02:17;;;;;;;11.05;9.57;;;;;;;;;;2064720;28;20190;-57
2021/07/24 06:03:17;;;;;;;11.82;9.45;;;;;;;;;;2069028;28;20179;-55
2021/07/24 06:04:17;;;;;;;11.38;9.68;;;;;;;;;;2068423;28;20335;-54